sensor_id;sensor_type;location;lat;lon;timestamp;P1;durP1;ratioP1;P2;durP2;ratioP2
58784;SDS011;44557;51.862;19.378;2023-03-25T00:00:47;12.70;;;7.20;;
58784;SDS011;44557;51.862;19.378;2023-03-25T00:02:55;12.30;;;7.70;;
58784;SDS011;44557;51.862;19.378;2023-03-25T00:04:56;11.60;;;7.00;;
58784;SDS011;44557;51.862;19.378;2023-03-25T00:07:00;12.90;;;7.50;;
58784;SDS011;44557;51.862;19.378;2023-03-25T00:09:02;13.70;;;7.30;;
58784;SDS011;44557;51.862;19.378;2023-03-25T00:11:04;12.60;;;8.00;;
58784;SDS011;44557;51.862;19.378;2023-03-25T00:13:06;11.90;;;7.40;;
58784;SDS011;44557;51.862;19.378;2023-03-25T00:15:08;11.30;;;7.60;;
58784;SDS011;44557;51.862;19.378;2023-03-25T00:17:10;13.20;;;7.70;;
58784;SDS011;44557;51.862;19.378;2023-03-25T00:19:13;12.20;;;7.40;;
58784;SDS011;44557;51.862;19.378;2023-03-25T00:21:17;10.80;;;7.10;;
58784;SDS011;44557;51.862;19.378;2023-03-25T00:23:19;10.80;;;7.00;;
58784;SDS011;44557;51.862;19.378;2023-03-25T00:25:20;11.00;;;6.60;;
58784;SDS011;44557;51.862;19.378;2023-03-25T00:27:21;11.40;;;6.80;;
58784;SDS011;44557;51.862;19.378;2023-03-25T00:29:22;11.40;;;6.70;;
58784;SDS011;44557;51.862;19.378;2023-03-25T00:31:23;12.10;;;7.10;;
58784;SDS011;44557;51.862;19.378;2023-03-25T00:33:24;10.80;;;7.40;;
58784;SDS011;44557;51.862;19.378;2023-03-25T00:35:25;10.80;;;7.40;;
58784;SDS011;44557;51.862;19.378;2023-03-25T00:37:28;11.80;;;6.80;;
58784;SDS011;44557;51.862;19.378;2023-03-25T00:39:29;10.00;;;6.50;;
58784;SDS011;44557;51.862;19.378;2023-03-25T00:41:31;10.90;;;6.50;;
58784;SDS011;44557;51.862;19.378;2023-03-25T00:43:32;12.60;;;7.20;;
58784;SDS011;44557;51.862;19.378;2023-03-25T00:45:34;10.10;;;6.50;;
58784;SDS011;44557;51.862;19.378;2023-03-25T00:47:35;11.10;;;6.90;;
58784;SDS011;44557;51.862;19.378;2023-03-25T00:49:36;10.20;;;6.60;;
58784;SDS011;44557;51.862;19.378;2023-03-25T00:51:37;12.20;;;7.60;;
58784;SDS011;44557;51.862;19.378;2023-03-25T00:53:38;13.10;;;7.00;;
58784;SDS011;44557;51.862;19.378;2023-03-25T00:55:39;12.90;;;7.90;;
58784;SDS011;44557;51.862;19.378;2023-03-25T00:57:42;11.50;;;7.60;;
58784;SDS011;44557;51.862;19.378;2023-03-25T00:59:42;11.40;;;6.90;;
58784;SDS011;44557;51.862;19.378;2023-03-25T01:01:44;12.40;;;6.70;;
58784;SDS011;44557;51.862;19.378;2023-03-25T01:03:48;12.40;;;6.90;;
58784;SDS011;44557;51.862;19.378;2023-03-25T01:05:57;11.70;;;7.00;;
58784;SDS011;44557;51.862;19.378;2023-03-25T01:07:59;11.50;;;6.70;;
58784;SDS011;44557;51.862;19.378;2023-03-25T01:10:02;10.70;;;7.10;;
58784;SDS011;44557;51.862;19.378;2023-03-25T01:12:04;11.70;;;7.60;;
58784;SDS011;44557;51.862;19.378;2023-03-25T01:14:07;11.30;;;7.30;;
58784;SDS011;44557;51.862;19.378;2023-03-25T01:16:10;10.60;;;7.30;;
58784;SDS011;44557;51.862;19.378;2023-03-25T01:18:12;12.10;;;7.90;;
58784;SDS011;44557;51.862;19.378;2023-03-25T01:20:13;12.00;;;7.00;;
58784;SDS011;44557;51.862;19.378;2023-03-25T01:22:14;10.20;;;7.00;;
58784;SDS011;44557;51.862;19.378;2023-03-25T01:24:15;12.60;;;7.40;;
58784;SDS011;44557;51.862;19.378;2023-03-25T01:26:16;13.20;;;8.50;;
58784;SDS011;44557;51.862;19.378;2023-03-25T01:28:17;11.90;;;8.20;;
58784;SDS011;44557;51.862;19.378;2023-03-25T01:30:20;14.40;;;8.60;;
58784;SDS011;44557;51.862;19.378;2023-03-25T01:32:21;14.20;;;7.90;;
58784;SDS011;44557;51.862;19.378;2023-03-25T01:34:22;12.00;;;7.90;;
58784;SDS011;44557;51.862;19.378;2023-03-25T01:36:24;9.60;;;6.80;;
58784;SDS011;44557;51.862;19.378;2023-03-25T01:38:29;11.40;;;7.40;;
58784;SDS011;44557;51.862;19.378;2023-03-25T01:40:30;10.80;;;6.70;;
58784;SDS011;44557;51.862;19.378;2023-03-25T01:42:31;12.70;;;7.90;;
58784;SDS011;44557;51.862;19.378;2023-03-25T01:46:33;10.90;;;7.40;;
58784;SDS011;44557;51.862;19.378;2023-03-25T01:48:38;11.00;;;7.40;;
58784;SDS011;44557;51.862;19.378;2023-03-25T01:50:44;12.70;;;8.10;;
58784;SDS011;44557;51.862;19.378;2023-03-25T01:52:50;12.20;;;7.60;;
58784;SDS011;44557;51.862;19.378;2023-03-25T01:54:52;11.60;;;7.10;;
58784;SDS011;44557;51.862;19.378;2023-03-25T01:56:55;10.70;;;6.90;;
58784;SDS011;44557;51.862;19.378;2023-03-25T01:58:58;11.20;;;7.80;;
58784;SDS011;44557;51.862;19.378;2023-03-25T02:01:02;12.00;;;7.10;;
58784;SDS011;44557;51.862;19.378;2023-03-25T02:03:04;11.30;;;7.30;;
58784;SDS011;44557;51.862;19.378;2023-03-25T02:05:19;12.00;;;7.80;;
58784;SDS011;44557;51.862;19.378;2023-03-25T02:07:26;11.30;;;7.20;;
58784;SDS011;44557;51.862;19.378;2023-03-25T02:09:30;10.90;;;7.10;;
58784;SDS011;44557;51.862;19.378;2023-03-25T02:11:32;11.00;;;7.20;;
58784;SDS011;44557;51.862;19.378;2023-03-25T02:13:34;12.90;;;7.60;;
58784;SDS011;44557;51.862;19.378;2023-03-25T02:15:47;11.60;;;6.60;;
58784;SDS011;44557;51.862;19.378;2023-03-25T02:18:11;11.00;;;7.40;;
58784;SDS011;44557;51.862;19.378;2023-03-25T02:30:37;13.80;;;8.20;;
58784;SDS011;44557;51.862;19.378;2023-03-25T02:32:49;11.40;;;8.10;;
58784;SDS011;44557;51.862;19.378;2023-03-25T02:40:48;10.70;;;7.40;;
58784;SDS011;44557;51.862;19.378;2023-03-25T02:43:02;12.00;;;7.50;;
58784;SDS011;44557;51.862;19.378;2023-03-25T02:45:18;11.90;;;7.70;;
58784;SDS011;44557;51.862;19.378;2023-03-25T02:47:35;10.50;;;7.30;;
58784;SDS011;44557;51.862;19.378;2023-03-25T02:49:46;10.20;;;7.30;;
58784;SDS011;44557;51.862;19.378;2023-03-25T02:51:55;10.80;;;7.30;;
58784;SDS011;44557;51.862;19.378;2023-03-25T02:54:11;11.20;;;7.10;;
58784;SDS011;44557;51.862;19.378;2023-03-25T02:56:13;12.00;;;8.20;;
58784;SDS011;44557;51.862;19.378;2023-03-25T02:58:18;10.60;;;7.60;;
58784;SDS011;44557;51.862;19.378;2023-03-25T03:00:22;10.90;;;7.90;;
58784;SDS011;44557;51.862;19.378;2023-03-25T03:02:28;11.00;;;7.90;;
58784;SDS011;44557;51.862;19.378;2023-03-25T03:04:32;11.50;;;8.10;;
58784;SDS011;44557;51.862;19.378;2023-03-25T03:06:44;11.20;;;8.50;;
58784;SDS011;44557;51.862;19.378;2023-03-25T03:08:53;12.30;;;7.80;;
58784;SDS011;44557;51.862;19.378;2023-03-25T03:11:12;11.80;;;8.20;;
58784;SDS011;44557;51.862;19.378;2023-03-25T03:13:50;10.60;;;7.70;;
58784;SDS011;44557;51.862;19.378;2023-03-25T03:18:30;12.50;;;8.10;;
58784;SDS011;44557;51.862;19.378;2023-03-25T03:20:39;12.70;;;8.30;;
58784;SDS011;44557;51.862;19.378;2023-03-25T03:23:12;12.40;;;8.80;;
58784;SDS011;44557;51.862;19.378;2023-03-25T03:25:29;14.30;;;9.10;;
58784;SDS011;44557;51.862;19.378;2023-03-25T03:27:54;13.70;;;8.90;;
58784;SDS011;44557;51.862;19.378;2023-03-25T03:30:28;13.00;;;8.50;;
58784;SDS011;44557;51.862;19.378;2023-03-25T03:34:52;14.90;;;8.70;;
58784;SDS011;44557;51.862;19.378;2023-03-25T03:37:02;14.20;;;8.90;;
58784;SDS011;44557;51.862;19.378;2023-03-25T03:39:08;12.30;;;8.50;;
58784;SDS011;44557;51.862;19.378;2023-03-25T03:41:17;13.00;;;8.50;;
58784;SDS011;44557;51.862;19.378;2023-03-25T03:45:42;12.00;;;8.20;;
58784;SDS011;44557;51.862;19.378;2023-03-25T03:47:48;12.50;;;8.00;;
58784;SDS011;44557;51.862;19.378;2023-03-25T03:50:04;13.90;;;9.70;;
58784;SDS011;44557;51.862;19.378;2023-03-25T03:52:18;13.70;;;9.10;;
58784;SDS011;44557;51.862;19.378;2023-03-25T03:54:25;12.90;;;8.60;;
58784;SDS011;44557;51.862;19.378;2023-03-25T03:56:31;15.40;;;9.70;;
58784;SDS011;44557;51.862;19.378;2023-03-25T03:58:46;13.70;;;9.30;;
58784;SDS011;44557;51.862;19.378;2023-03-25T04:01:07;13.40;;;8.60;;
58784;SDS011;44557;51.862;19.378;2023-03-25T04:03:20;13.50;;;9.20;;
58784;SDS011;44557;51.862;19.378;2023-03-25T04:05:28;13.60;;;8.70;;
58784;SDS011;44557;51.862;19.378;2023-03-25T04:07:38;14.30;;;9.70;;
58784;SDS011;44557;51.862;19.378;2023-03-25T04:09:55;12.10;;;9.20;;
58784;SDS011;44557;51.862;19.378;2023-03-25T04:12:16;15.40;;;8.80;;
58784;SDS011;44557;51.862;19.378;2023-03-25T04:14:20;13.40;;;8.60;;
58784;SDS011;44557;51.862;19.378;2023-03-25T04:16:21;12.00;;;8.20;;
58784;SDS011;44557;51.862;19.378;2023-03-25T04:18:22;13.50;;;8.70;;
58784;SDS011;44557;51.862;19.378;2023-03-25T04:20:23;13.50;;;8.50;;
58784;SDS011;44557;51.862;19.378;2023-03-25T04:22:29;11.40;;;8.00;;
58784;SDS011;44557;51.862;19.378;2023-03-25T04:24:30;13.10;;;8.40;;
58784;SDS011;44557;51.862;19.378;2023-03-25T04:26:31;10.90;;;7.80;;
58784;SDS011;44557;51.862;19.378;2023-03-25T04:28:33;13.40;;;8.30;;
58784;SDS011;44557;51.862;19.378;2023-03-25T04:30:36;12.10;;;7.70;;
58784;SDS011;44557;51.862;19.378;2023-03-25T04:32:37;13.90;;;7.80;;
58784;SDS011;44557;51.862;19.378;2023-03-25T04:34:37;12.30;;;8.20;;
58784;SDS011;44557;51.862;19.378;2023-03-25T04:36:39;12.20;;;8.20;;
58784;SDS011;44557;51.862;19.378;2023-03-25T04:38:42;12.60;;;8.10;;
58784;SDS011;44557;51.862;19.378;2023-03-25T04:40:46;11.00;;;7.60;;
58784;SDS011;44557;51.862;19.378;2023-03-25T04:42:47;12.20;;;8.50;;
58784;SDS011;44557;51.862;19.378;2023-03-25T04:44:48;11.90;;;8.30;;
58784;SDS011;44557;51.862;19.378;2023-03-25T04:46:49;12.30;;;8.20;;
58784;SDS011;44557;51.862;19.378;2023-03-25T04:48:51;13.30;;;9.10;;
58784;SDS011;44557;51.862;19.378;2023-03-25T04:50:53;11.00;;;8.00;;
58784;SDS011;44557;51.862;19.378;2023-03-25T04:52:55;13.40;;;8.50;;
58784;SDS011;44557;51.862;19.378;2023-03-25T04:54:57;12.30;;;8.70;;
58784;SDS011;44557;51.862;19.378;2023-03-25T04:56:58;12.70;;;8.20;;
58784;SDS011;44557;51.862;19.378;2023-03-25T04:58:59;12.50;;;8.40;;
58784;SDS011;44557;51.862;19.378;2023-03-25T05:01:00;14.40;;;8.60;;
58784;SDS011;44557;51.862;19.378;2023-03-25T05:03:05;11.60;;;8.00;;
58784;SDS011;44557;51.862;19.378;2023-03-25T05:05:06;11.80;;;8.40;;
58784;SDS011;44557;51.862;19.378;2023-03-25T05:07:08;13.80;;;7.80;;
58784;SDS011;44557;51.862;19.378;2023-03-25T05:09:12;13.40;;;9.00;;
58784;SDS011;44557;51.862;19.378;2023-03-25T05:11:24;12.80;;;7.80;;
58784;SDS011;44557;51.862;19.378;2023-03-25T05:13:25;12.80;;;9.00;;
58784;SDS011;44557;51.862;19.378;2023-03-25T05:15:26;14.20;;;9.50;;
58784;SDS011;44557;51.862;19.378;2023-03-25T05:17:27;12.70;;;8.30;;
58784;SDS011;44557;51.862;19.378;2023-03-25T05:19:30;12.60;;;8.70;;
58784;SDS011;44557;51.862;19.378;2023-03-25T05:21:37;11.40;;;8.20;;
58784;SDS011;44557;51.862;19.378;2023-03-25T05:23:40;13.20;;;8.80;;
58784;SDS011;44557;51.862;19.378;2023-03-25T05:25:41;12.30;;;8.50;;
58784;SDS011;44557;51.862;19.378;2023-03-25T05:27:43;14.20;;;8.80;;
58784;SDS011;44557;51.862;19.378;2023-03-25T05:29:46;14.60;;;9.30;;
58784;SDS011;44557;51.862;19.378;2023-03-25T05:31:47;17.50;;;9.90;;
58784;SDS011;44557;51.862;19.378;2023-03-25T05:33:49;12.30;;;8.70;;
58784;SDS011;44557;51.862;19.378;2023-03-25T05:35:51;15.30;;;9.60;;
58784;SDS011;44557;51.862;19.378;2023-03-25T05:37:52;14.90;;;8.90;;
58784;SDS011;44557;51.862;19.378;2023-03-25T05:39:53;12.70;;;8.50;;
58784;SDS011;44557;51.862;19.378;2023-03-25T05:41:54;12.20;;;9.00;;
58784;SDS011;44557;51.862;19.378;2023-03-25T05:43:55;11.30;;;8.20;;
58784;SDS011;44557;51.862;19.378;2023-03-25T05:45:56;11.10;;;7.90;;
58784;SDS011;44557;51.862;19.378;2023-03-25T05:47:57;12.30;;;8.80;;
58784;SDS011;44557;51.862;19.378;2023-03-25T05:49:59;12.80;;;8.30;;
58784;SDS011;44557;51.862;19.378;2023-03-25T05:52:01;12.80;;;8.40;;
58784;SDS011;44557;51.862;19.378;2023-03-25T05:54:02;12.20;;;8.70;;
58784;SDS011;44557;51.862;19.378;2023-03-25T05:56:03;14.40;;;8.10;;
58784;SDS011;44557;51.862;19.378;2023-03-25T05:58:05;11.70;;;7.90;;
58784;SDS011;44557;51.862;19.378;2023-03-25T06:00:06;12.70;;;8.20;;
58784;SDS011;44557;51.862;19.378;2023-03-25T06:02:12;11.20;;;7.80;;
58784;SDS011;44557;51.862;19.378;2023-03-25T06:04:15;12.50;;;8.20;;
58784;SDS011;44557;51.862;19.378;2023-03-25T06:06:16;12.10;;;7.90;;
58784;SDS011;44557;51.862;19.378;2023-03-25T06:08:19;11.10;;;7.90;;
58784;SDS011;44557;51.862;19.378;2023-03-25T06:10:25;10.80;;;7.60;;
58784;SDS011;44557;51.862;19.378;2023-03-25T06:12:27;11.60;;;7.60;;
58784;SDS011;44557;51.862;19.378;2023-03-25T06:14:29;10.90;;;7.70;;
58784;SDS011;44557;51.862;19.378;2023-03-25T06:16:30;10.50;;;7.30;;
58784;SDS011;44557;51.862;19.378;2023-03-25T06:18:32;12.20;;;8.10;;
58784;SDS011;44557;51.862;19.378;2023-03-25T06:20:34;10.70;;;7.60;;
58784;SDS011;44557;51.862;19.378;2023-03-25T06:22:38;12.60;;;7.70;;
58784;SDS011;44557;51.862;19.378;2023-03-25T06:24:42;11.10;;;7.40;;
58784;SDS011;44557;51.862;19.378;2023-03-25T06:26:43;11.50;;;7.80;;
58784;SDS011;44557;51.862;19.378;2023-03-25T06:28:43;10.40;;;7.40;;
58784;SDS011;44557;51.862;19.378;2023-03-25T06:30:46;13.50;;;7.80;;
58784;SDS011;44557;51.862;19.378;2023-03-25T06:32:48;11.30;;;7.80;;
58784;SDS011;44557;51.862;19.378;2023-03-25T06:34:52;11.50;;;8.10;;
58784;SDS011;44557;51.862;19.378;2023-03-25T06:36:53;11.50;;;7.50;;
58784;SDS011;44557;51.862;19.378;2023-03-25T06:38:54;11.90;;;8.10;;
58784;SDS011;44557;51.862;19.378;2023-03-25T06:40:55;11.90;;;8.50;;
58784;SDS011;44557;51.862;19.378;2023-03-25T06:42:56;12.20;;;7.00;;
58784;SDS011;44557;51.862;19.378;2023-03-25T06:44:57;10.60;;;6.40;;
58784;SDS011;44557;51.862;19.378;2023-03-25T06:46:59;11.60;;;6.70;;
58784;SDS011;44557;51.862;19.378;2023-03-25T06:49:01;10.40;;;6.70;;
58784;SDS011;44557;51.862;19.378;2023-03-25T06:51:02;10.90;;;7.50;;
58784;SDS011;44557;51.862;19.378;2023-03-25T06:53:03;10.90;;;7.50;;
58784;SDS011;44557;51.862;19.378;2023-03-25T06:55:05;11.20;;;7.00;;
58784;SDS011;44557;51.862;19.378;2023-03-25T06:57:06;9.30;;;6.90;;
58784;SDS011;44557;51.862;19.378;2023-03-25T06:59:07;10.50;;;6.50;;
58784;SDS011;44557;51.862;19.378;2023-03-25T07:01:08;12.10;;;7.40;;
58784;SDS011;44557;51.862;19.378;2023-03-25T07:03:10;10.50;;;6.70;;
58784;SDS011;44557;51.862;19.378;2023-03-25T07:05:11;10.80;;;7.20;;
58784;SDS011;44557;51.862;19.378;2023-03-25T07:07:12;10.90;;;7.20;;
58784;SDS011;44557;51.862;19.378;2023-03-25T07:09:13;12.10;;;7.60;;
58784;SDS011;44557;51.862;19.378;2023-03-25T07:11:15;12.40;;;7.40;;
58784;SDS011;44557;51.862;19.378;2023-03-25T07:13:25;11.20;;;6.50;;
58784;SDS011;44557;51.862;19.378;2023-03-25T07:15:26;10.70;;;6.90;;
58784;SDS011;44557;51.862;19.378;2023-03-25T07:17:27;11.70;;;6.30;;
58784;SDS011;44557;51.862;19.378;2023-03-25T07:19:28;11.30;;;6.80;;
58784;SDS011;44557;51.862;19.378;2023-03-25T07:21:29;13.50;;;6.80;;
58784;SDS011;44557;51.862;19.378;2023-03-25T07:23:30;11.70;;;6.80;;
58784;SDS011;44557;51.862;19.378;2023-03-25T07:25:32;10.90;;;6.40;;
58784;SDS011;44557;51.862;19.378;2023-03-25T07:27:32;10.20;;;6.40;;
58784;SDS011;44557;51.862;19.378;2023-03-25T07:29:34;12.10;;;6.70;;
58784;SDS011;44557;51.862;19.378;2023-03-25T07:31:35;12.40;;;7.10;;
58784;SDS011;44557;51.862;19.378;2023-03-25T07:33:38;10.50;;;6.40;;
58784;SDS011;44557;51.862;19.378;2023-03-25T07:35:39;12.00;;;6.30;;
58784;SDS011;44557;51.862;19.378;2023-03-25T07:37:40;11.30;;;6.80;;
58784;SDS011;44557;51.862;19.378;2023-03-25T07:39:41;12.00;;;6.70;;
58784;SDS011;44557;51.862;19.378;2023-03-25T07:41:41;12.20;;;6.30;;
58784;SDS011;44557;51.862;19.378;2023-03-25T07:43:43;10.30;;;6.40;;
58784;SDS011;44557;51.862;19.378;2023-03-25T07:45:45;11.20;;;5.90;;
58784;SDS011;44557;51.862;19.378;2023-03-25T07:47:46;10.00;;;5.60;;
58784;SDS011;44557;51.862;19.378;2023-03-25T07:49:49;10.90;;;6.10;;
58784;SDS011;44557;51.862;19.378;2023-03-25T07:51:50;8.50;;;4.90;;
58784;SDS011;44557;51.862;19.378;2023-03-25T07:53:51;11.70;;;5.80;;
58784;SDS011;44557;51.862;19.378;2023-03-25T07:55:53;11.10;;;5.00;;
58784;SDS011;44557;51.862;19.378;2023-03-25T07:57:53;11.10;;;5.10;;
58784;SDS011;44557;51.862;19.378;2023-03-25T07:59:55;10.10;;;4.50;;
58784;SDS011;44557;51.862;19.378;2023-03-25T08:01:56;9.40;;;4.70;;
58784;SDS011;44557;51.862;19.378;2023-03-25T08:03:58;7.60;;;4.00;;
58784;SDS011;44557;51.862;19.378;2023-03-25T08:05:59;9.50;;;4.30;;
58784;SDS011;44557;51.862;19.378;2023-03-25T08:08:03;7.90;;;3.90;;
58784;SDS011;44557;51.862;19.378;2023-03-25T08:10:05;7.00;;;3.50;;
58784;SDS011;44557;51.862;19.378;2023-03-25T08:12:07;8.40;;;3.40;;
58784;SDS011;44557;51.862;19.378;2023-03-25T08:14:09;7.50;;;3.60;;
58784;SDS011;44557;51.862;19.378;2023-03-25T08:16:13;6.90;;;3.40;;
58784;SDS011;44557;51.862;19.378;2023-03-25T08:18:15;7.10;;;2.90;;
58784;SDS011;44557;51.862;19.378;2023-03-25T08:20:16;8.10;;;2.90;;
58784;SDS011;44557;51.862;19.378;2023-03-25T08:22:17;5.50;;;2.50;;
58784;SDS011;44557;51.862;19.378;2023-03-25T08:24:18;9.00;;;3.40;;
58784;SDS011;44557;51.862;19.378;2023-03-25T08:26:20;5.60;;;2.60;;
58784;SDS011;44557;51.862;19.378;2023-03-25T08:28:20;7.70;;;3.10;;
58784;SDS011;44557;51.862;19.378;2023-03-25T08:30:22;7.70;;;2.80;;
58784;SDS011;44557;51.862;19.378;2023-03-25T08:32:25;7.50;;;3.30;;
58784;SDS011;44557;51.862;19.378;2023-03-25T08:34:28;6.60;;;3.20;;
58784;SDS011;44557;51.862;19.378;2023-03-25T08:36:30;8.00;;;3.40;;
58784;SDS011;44557;51.862;19.378;2023-03-25T08:38:31;6.80;;;2.60;;
58784;SDS011;44557;51.862;19.378;2023-03-25T08:40:33;8.10;;;3.20;;
58784;SDS011;44557;51.862;19.378;2023-03-25T08:42:35;6.90;;;3.40;;
58784;SDS011;44557;51.862;19.378;2023-03-25T08:44:37;7.70;;;3.10;;
58784;SDS011;44557;51.862;19.378;2023-03-25T08:46:39;8.00;;;3.00;;
58784;SDS011;44557;51.862;19.378;2023-03-25T08:48:41;7.10;;;3.00;;
58784;SDS011;44557;51.862;19.378;2023-03-25T08:50:43;7.90;;;3.20;;
58784;SDS011;44557;51.862;19.378;2023-03-25T08:52:44;7.80;;;3.10;;
58784;SDS011;44557;51.862;19.378;2023-03-25T08:54:45;8.50;;;2.90;;
58784;SDS011;44557;51.862;19.378;2023-03-25T08:56:46;5.70;;;3.10;;
58784;SDS011;44557;51.862;19.378;2023-03-25T08:58:47;6.90;;;3.80;;
58784;SDS011;44557;51.862;19.378;2023-03-25T09:00:52;7.60;;;2.60;;
58784;SDS011;44557;51.862;19.378;2023-03-25T09:02:55;6.60;;;3.00;;
58784;SDS011;44557;51.862;19.378;2023-03-25T09:04:58;8.00;;;3.30;;
58784;SDS011;44557;51.862;19.378;2023-03-25T09:06:59;8.30;;;3.30;;
58784;SDS011;44557;51.862;19.378;2023-03-25T09:09:00;8.00;;;3.20;;
58784;SDS011;44557;51.862;19.378;2023-03-25T09:11:01;6.90;;;2.80;;
58784;SDS011;44557;51.862;19.378;2023-03-25T09:13:02;6.80;;;3.20;;
58784;SDS011;44557;51.862;19.378;2023-03-25T09:15:03;7.70;;;3.80;;
58784;SDS011;44557;51.862;19.378;2023-03-25T09:17:05;9.10;;;3.70;;
58784;SDS011;44557;51.862;19.378;2023-03-25T09:19:07;9.50;;;4.30;;
58784;SDS011;44557;51.862;19.378;2023-03-25T09:21:09;10.00;;;4.50;;
58784;SDS011;44557;51.862;19.378;2023-03-25T09:23:10;7.70;;;3.50;;
58784;SDS011;44557;51.862;19.378;2023-03-25T09:25:12;8.00;;;3.80;;
58784;SDS011;44557;51.862;19.378;2023-03-25T09:27:14;8.80;;;4.20;;
58784;SDS011;44557;51.862;19.378;2023-03-25T09:29:17;8.10;;;3.70;;
58784;SDS011;44557;51.862;19.378;2023-03-25T09:31:17;7.50;;;3.90;;
58784;SDS011;44557;51.862;19.378;2023-03-25T09:33:18;7.80;;;4.10;;
58784;SDS011;44557;51.862;19.378;2023-03-25T09:35:20;9.10;;;3.40;;
58784;SDS011;44557;51.862;19.378;2023-03-25T09:37:21;8.40;;;3.60;;
58784;SDS011;44557;51.862;19.378;2023-03-25T09:39:22;10.70;;;4.20;;
58784;SDS011;44557;51.862;19.378;2023-03-25T09:41:34;9.40;;;3.70;;
58784;SDS011;44557;51.862;19.378;2023-03-25T09:46:28;7.60;;;3.70;;
58784;SDS011;44557;51.862;19.378;2023-03-25T09:48:39;8.40;;;3.50;;
58784;SDS011;44557;51.862;19.378;2023-03-25T09:50:42;6.90;;;3.70;;
58784;SDS011;44557;51.862;19.378;2023-03-25T09:52:48;7.40;;;3.30;;
58784;SDS011;44557;51.862;19.378;2023-03-25T09:54:56;6.80;;;3.20;;
58784;SDS011;44557;51.862;19.378;2023-03-25T09:57:03;6.60;;;3.20;;
58784;SDS011;44557;51.862;19.378;2023-03-25T09:59:20;6.70;;;2.80;;
58784;SDS011;44557;51.862;19.378;2023-03-25T10:01:32;9.10;;;2.90;;
58784;SDS011;44557;51.862;19.378;2023-03-25T10:06:35;6.50;;;2.40;;
58784;SDS011;44557;51.862;19.378;2023-03-25T10:09:00;8.80;;;3.40;;
58784;SDS011;44557;51.862;19.378;2023-03-25T10:11:11;8.00;;;3.50;;
58784;SDS011;44557;51.862;19.378;2023-03-25T10:18:57;7.20;;;3.20;;
58784;SDS011;44557;51.862;19.378;2023-03-25T10:25:38;6.80;;;3.10;;
58784;SDS011;44557;51.862;19.378;2023-03-25T10:27:45;7.60;;;3.50;;
58784;SDS011;44557;51.862;19.378;2023-03-25T10:29:55;7.50;;;3.00;;
58784;SDS011;44557;51.862;19.378;2023-03-25T10:32:05;7.90;;;2.90;;
58784;SDS011;44557;51.862;19.378;2023-03-25T10:34:15;7.70;;;3.00;;
58784;SDS011;44557;51.862;19.378;2023-03-25T10:36:18;10.20;;;3.80;;
58784;SDS011;44557;51.862;19.378;2023-03-25T10:38:27;7.70;;;2.90;;
58784;SDS011;44557;51.862;19.378;2023-03-25T10:40:41;8.30;;;3.20;;
58784;SDS011;44557;51.862;19.378;2023-03-25T10:45:30;6.90;;;2.60;;
58784;SDS011;44557;51.862;19.378;2023-03-25T10:47:34;9.10;;;2.80;;
58784;SDS011;44557;51.862;19.378;2023-03-25T10:49:39;7.50;;;2.90;;
58784;SDS011;44557;51.862;19.378;2023-03-25T10:51:41;6.90;;;3.00;;
58784;SDS011;44557;51.862;19.378;2023-03-25T10:53:44;6.10;;;2.80;;
58784;SDS011;44557;51.862;19.378;2023-03-25T10:55:57;6.10;;;2.90;;
58784;SDS011;44557;51.862;19.378;2023-03-25T10:58:04;5.60;;;2.90;;
58784;SDS011;44557;51.862;19.378;2023-03-25T11:00:12;6.20;;;2.90;;
58784;SDS011;44557;51.862;19.378;2023-03-25T11:02:23;5.50;;;3.00;;
58784;SDS011;44557;51.862;19.378;2023-03-25T11:04:37;7.40;;;3.20;;
58784;SDS011;44557;51.862;19.378;2023-03-25T11:06:46;6.80;;;3.10;;
58784;SDS011;44557;51.862;19.378;2023-03-25T11:08:56;7.70;;;3.20;;
58784;SDS011;44557;51.862;19.378;2023-03-25T11:11:13;5.40;;;3.50;;
58784;SDS011;44557;51.862;19.378;2023-03-25T11:13:14;9.20;;;3.80;;
58784;SDS011;44557;51.862;19.378;2023-03-25T11:15:25;6.90;;;3.50;;
58784;SDS011;44557;51.862;19.378;2023-03-25T11:17:30;7.00;;;3.50;;
58784;SDS011;44557;51.862;19.378;2023-03-25T11:19:40;7.60;;;3.90;;
58784;SDS011;44557;51.862;19.378;2023-03-25T11:22:16;7.00;;;3.50;;
58784;SDS011;44557;51.862;19.378;2023-03-25T11:24:32;6.60;;;3.80;;
58784;SDS011;44557;51.862;19.378;2023-03-25T11:26:38;8.80;;;4.00;;
58784;SDS011;44557;51.862;19.378;2023-03-25T11:28:41;7.80;;;3.50;;
58784;SDS011;44557;51.862;19.378;2023-03-25T11:33:12;7.90;;;3.80;;
58784;SDS011;44557;51.862;19.378;2023-03-25T11:35:20;9.00;;;3.90;;
58784;SDS011;44557;51.862;19.378;2023-03-25T11:37:24;8.80;;;4.10;;
58784;SDS011;44557;51.862;19.378;2023-03-25T11:39:34;7.50;;;4.00;;
58784;SDS011;44557;51.862;19.378;2023-03-25T11:41:39;8.00;;;4.10;;
58784;SDS011;44557;51.862;19.378;2023-03-25T11:43:40;6.00;;;3.20;;
58784;SDS011;44557;51.862;19.378;2023-03-25T11:45:42;7.40;;;3.40;;
58784;SDS011;44557;51.862;19.378;2023-03-25T11:47:45;6.10;;;3.40;;
58784;SDS011;44557;51.862;19.378;2023-03-25T11:49:47;8.80;;;3.60;;
58784;SDS011;44557;51.862;19.378;2023-03-25T11:51:50;7.00;;;3.40;;
58784;SDS011;44557;51.862;19.378;2023-03-25T11:53:59;6.30;;;3.20;;
58784;SDS011;44557;51.862;19.378;2023-03-25T11:56:03;6.80;;;3.50;;
58784;SDS011;44557;51.862;19.378;2023-03-25T11:58:11;7.30;;;3.70;;
58784;SDS011;44557;51.862;19.378;2023-03-25T12:00:29;5.70;;;3.40;;
58784;SDS011;44557;51.862;19.378;2023-03-25T12:02:38;7.40;;;3.50;;
58784;SDS011;44557;51.862;19.378;2023-03-25T12:04:50;7.60;;;3.60;;
58784;SDS011;44557;51.862;19.378;2023-03-25T12:07:13;5.50;;;3.40;;
58784;SDS011;44557;51.862;19.378;2023-03-25T12:09:14;7.20;;;3.40;;
58784;SDS011;44557;51.862;19.378;2023-03-25T12:11:35;6.00;;;3.20;;
58784;SDS011;44557;51.862;19.378;2023-03-25T12:23:10;5.10;;;2.60;;
58784;SDS011;44557;51.862;19.378;2023-03-25T12:34:38;5.50;;;2.80;;
58784;SDS011;44557;51.862;19.378;2023-03-25T12:41:21;6.20;;;2.90;;
58784;SDS011;44557;51.862;19.378;2023-03-25T12:50:46;6.20;;;3.20;;
58784;SDS011;44557;51.862;19.378;2023-03-25T12:53:19;6.30;;;2.80;;
58784;SDS011;44557;51.862;19.378;2023-03-25T12:55:42;6.10;;;2.60;;
58784;SDS011;44557;51.862;19.378;2023-03-25T12:58:02;5.00;;;1.50;;
58784;SDS011;44557;51.862;19.378;2023-03-25T13:06:59;3.80;;;1.30;;
58784;SDS011;44557;51.862;19.378;2023-03-25T13:09:26;5.00;;;1.50;;
58784;SDS011;44557;51.862;19.378;2023-03-25T13:11:56;3.80;;;1.70;;
58784;SDS011;44557;51.862;19.378;2023-03-25T13:14:03;5.00;;;1.30;;
58784;SDS011;44557;51.862;19.378;2023-03-25T13:16:13;3.80;;;1.30;;
58784;SDS011;44557;51.862;19.378;2023-03-25T13:20:51;3.40;;;1.20;;
58784;SDS011;44557;51.862;19.378;2023-03-25T13:22:58;4.80;;;1.30;;
58784;SDS011;44557;51.862;19.378;2023-03-25T13:25:04;4.80;;;2.40;;
58784;SDS011;44557;51.862;19.378;2023-03-25T13:27:09;3.80;;;1.60;;
58784;SDS011;44557;51.862;19.378;2023-03-25T13:29:21;5.80;;;2.00;;
58784;SDS011;44557;51.862;19.378;2023-03-25T13:31:53;5.50;;;1.80;;
58784;SDS011;44557;51.862;19.378;2023-03-25T13:36:18;6.10;;;2.40;;
58784;SDS011;44557;51.862;19.378;2023-03-25T13:38:31;5.90;;;2.60;;
58784;SDS011;44557;51.862;19.378;2023-03-25T13:40:49;4.90;;;2.20;;
58784;SDS011;44557;51.862;19.378;2023-03-25T13:43:11;6.60;;;2.60;;
58784;SDS011;44557;51.862;19.378;2023-03-25T13:45:22;6.50;;;2.80;;